sensor_id;sensor_type;location;lat;lon;timestamp;P1;durP1;ratioP1;P2;durP2;ratioP2
21152;SDS011;10734;44.792;20.482;2022-12-05T00:00:25;10.70;;;5.35;;
21152;SDS011;10734;44.792;20.482;2022-12-05T00:02:52;9.32;;;4.65;;
21152;SDS011;10734;44.792;20.482;2022-12-05T00:05:18;10.32;;;5.28;;
21152;SDS011;10734;44.792;20.482;2022-12-05T00:07:44;7.55;;;4.03;;
21152;SDS011;10734;44.792;20.482;2022-12-05T00:10:11;8.90;;;4.40;;
21152;SDS011;10734;44.792;20.482;2022-12-05T00:12:38;7.70;;;3.90;;
21152;SDS011;10734;44.792;20.482;2022-12-05T00:15:04;7.90;;;4.10;;
21152;SDS011;10734;44.792;20.482;2022-12-05T00:17:31;7.53;;;3.90;;
21152;SDS011;10734;44.792;20.482;2022-12-05T00:19:58;9.13;;;4.18;;
21152;SDS011;10734;44.792;20.482;2022-12-05T00:22:25;8.50;;;4.22;;
21152;SDS011;10734;44.792;20.482;2022-12-05T00:24:52;11.85;;;4.53;;
21152;SDS011;10734;44.792;20.482;2022-12-05T00:27:18;8.68;;;4.22;;
21152;SDS011;10734;44.792;20.482;2022-12-05T00:29:45;5.85;;;3.60;;
21152;SDS011;10734;44.792;20.482;2022-12-05T00:32:11;7.95;;;3.70;;
21152;SDS011;10734;44.792;20.482;2022-12-05T00:34:38;8.95;;;4.70;;
21152;SDS011;10734;44.792;20.482;2022-12-05T00:37:04;9.40;;;4.22;;
21152;SDS011;10734;44.792;20.482;2022-12-05T00:39:31;10.95;;;4.53;;
21152;SDS011;10734;44.792;20.482;2022-12-05T00:41:57;7.25;;;4.45;;
21152;SDS011;10734;44.792;20.482;2022-12-05T00:44:24;7.18;;;4.20;;
21152;SDS011;10734;44.792;20.482;2022-12-05T00:46:50;7.82;;;4.25;;
21152;SDS011;10734;44.792;20.482;2022-12-05T00:49:17;8.30;;;4.25;;
21152;SDS011;10734;44.792;20.482;2022-12-05T00:51:43;11.35;;;4.72;;
21152;SDS011;10734;44.792;20.482;2022-12-05T00:54:11;10.68;;;4.68;;
21152;SDS011;10734;44.792;20.482;2022-12-05T00:56:38;9.77;;;4.10;;
21152;SDS011;10734;44.792;20.482;2022-12-05T00:59:05;7.35;;;3.47;;
21152;SDS011;10734;44.792;20.482;2022-12-05T01:01:32;7.65;;;3.42;;
21152;SDS011;10734;44.792;20.482;2022-12-05T01:04:00;6.80;;;3.72;;
21152;SDS011;10734;44.792;20.482;2022-12-05T01:06:27;7.35;;;3.78;;
21152;SDS011;10734;44.792;20.482;2022-12-05T01:08:54;7.43;;;3.88;;
21152;SDS011;10734;44.792;20.482;2022-12-05T01:11:21;8.13;;;3.80;;
21152;SDS011;10734;44.792;20.482;2022-12-05T01:13:48;6.68;;;3.63;;
21152;SDS011;10734;44.792;20.482;2022-12-05T01:18:44;7.25;;;3.92;;
21152;SDS011;10734;44.792;20.482;2022-12-05T01:21:11;7.90;;;4.25;;
21152;SDS011;10734;44.792;20.482;2022-12-05T01:23:38;6.85;;;3.83;;
21152;SDS011;10734;44.792;20.482;2022-12-05T01:26:05;9.40;;;4.15;;
21152;SDS011;10734;44.792;20.482;2022-12-05T01:28:33;8.13;;;4.00;;
21152;SDS011;10734;44.792;20.482;2022-12-05T01:31:02;7.63;;;4.15;;
21152;SDS011;10734;44.792;20.482;2022-12-05T01:33:29;8.23;;;3.45;;
21152;SDS011;10734;44.792;20.482;2022-12-05T01:35:56;7.53;;;3.85;;
21152;SDS011;10734;44.792;20.482;2022-12-05T01:38:22;7.05;;;3.63;;
21152;SDS011;10734;44.792;20.482;2022-12-05T01:40:48;7.05;;;4.15;;
21152;SDS011;10734;44.792;20.482;2022-12-05T01:43:16;6.80;;;3.75;;
21152;SDS011;10734;44.792;20.482;2022-12-05T01:45:44;9.00;;;4.22;;
21152;SDS011;10734;44.792;20.482;2022-12-05T01:48:16;8.00;;;3.80;;
21152;SDS011;10734;44.792;20.482;2022-12-05T01:50:43;8.50;;;4.38;;
21152;SDS011;10734;44.792;20.482;2022-12-05T01:53:10;8.30;;;3.90;;
21152;SDS011;10734;44.792;20.482;2022-12-05T01:55:36;9.07;;;4.28;;
21152;SDS011;10734;44.792;20.482;2022-12-05T01:58:04;8.65;;;4.15;;
21152;SDS011;10734;44.792;20.482;2022-12-05T02:00:31;7.55;;;3.50;;
21152;SDS011;10734;44.792;20.482;2022-12-05T02:02:59;5.60;;;3.38;;
21152;SDS011;10734;44.792;20.482;2022-12-05T02:05:28;5.93;;;3.22;;
21152;SDS011;10734;44.792;20.482;2022-12-05T02:07:55;8.18;;;3.78;;
21152;SDS011;10734;44.792;20.482;2022-12-05T02:10:23;5.40;;;3.28;;
21152;SDS011;10734;44.792;20.482;2022-12-05T02:12:50;5.60;;;3.38;;
21152;SDS011;10734;44.792;20.482;2022-12-05T02:15:20;6.85;;;3.75;;
21152;SDS011;10734;44.792;20.482;2022-12-05T02:25:44;7.38;;;3.08;;
21152;SDS011;10734;44.792;20.482;2022-12-05T02:33:18;6.03;;;3.05;;
21152;SDS011;10734;44.792;20.482;2022-12-05T02:45:59;4.47;;;2.40;;
21152;SDS011;10734;44.792;20.482;2022-12-05T02:48:28;5.82;;;2.97;;
21152;SDS011;10734;44.792;20.482;2022-12-05T02:50:55;8.82;;;4.38;;
21152;SDS011;10734;44.792;20.482;2022-12-05T02:53:24;6.13;;;3.40;;
21152;SDS011;10734;44.792;20.482;2022-12-05T02:55:52;7.50;;;2.83;;
21152;SDS011;10734;44.792;20.482;2022-12-05T02:58:22;4.28;;;2.67;;
21152;SDS011;10734;44.792;20.482;2022-12-05T03:00:54;8.88;;;2.75;;
21152;SDS011;10734;44.792;20.482;2022-12-05T03:03:21;4.47;;;2.55;;
21152;SDS011;10734;44.792;20.482;2022-12-05T03:05:50;4.82;;;2.63;;
21152;SDS011;10734;44.792;20.482;2022-12-05T03:08:22;4.45;;;2.90;;
21152;SDS011;10734;44.792;20.482;2022-12-05T03:10:49;5.90;;;3.10;;
21152;SDS011;10734;44.792;20.482;2022-12-05T03:16:28;5.13;;;2.90;;
21152;SDS011;10734;44.792;20.482;2022-12-05T03:19:02;6.60;;;3.58;;
21152;SDS011;10734;44.792;20.482;2022-12-05T03:21:38;5.00;;;2.90;;
21152;SDS011;10734;44.792;20.482;2022-12-05T03:24:07;5.47;;;2.90;;
21152;SDS011;10734;44.792;20.482;2022-12-05T03:26:36;6.13;;;3.05;;
21152;SDS011;10734;44.792;20.482;2022-12-05T03:33:59;4.35;;;2.42;;
21152;SDS011;10734;44.792;20.482;2022-12-05T03:36:31;6.22;;;2.75;;
21152;SDS011;10734;44.792;20.482;2022-12-05T03:41:47;7.57;;;3.35;;
21152;SDS011;10734;44.792;20.482;2022-12-05T03:44:18;7.95;;;3.15;;
21152;SDS011;10734;44.792;20.482;2022-12-05T03:49:35;4.60;;;2.88;;
21152;SDS011;10734;44.792;20.482;2022-12-05T03:52:07;5.68;;;2.50;;
21152;SDS011;10734;44.792;20.482;2022-12-05T03:54:58;5.75;;;2.40;;
21152;SDS011;10734;44.792;20.482;2022-12-05T03:57:30;6.47;;;3.35;;
21152;SDS011;10734;44.792;20.482;2022-12-05T03:59:59;4.70;;;2.75;;
21152;SDS011;10734;44.792;20.482;2022-12-05T04:02:29;4.97;;;2.90;;
21152;SDS011;10734;44.792;20.482;2022-12-05T04:05:04;6.32;;;3.22;;
21152;SDS011;10734;44.792;20.482;2022-12-05T04:07:32;3.75;;;2.20;;
21152;SDS011;10734;44.792;20.482;2022-12-05T04:10:02;4.88;;;2.30;;
21152;SDS011;10734;44.792;20.482;2022-12-05T04:12:30;5.60;;;2.90;;
21152;SDS011;10734;44.792;20.482;2022-12-05T04:15:01;6.75;;;3.28;;
21152;SDS011;10734;44.792;20.482;2022-12-05T04:20:29;7.97;;;3.17;;
21152;SDS011;10734;44.792;20.482;2022-12-05T04:23:15;9.15;;;3.88;;
21152;SDS011;10734;44.792;20.482;2022-12-05T04:28:17;5.32;;;3.22;;
21152;SDS011;10734;44.792;20.482;2022-12-05T04:30:48;5.90;;;3.42;;
21152;SDS011;10734;44.792;20.482;2022-12-05T04:33:16;7.32;;;3.60;;
21152;SDS011;10734;44.792;20.482;2022-12-05T04:41:05;10.02;;;3.88;;
21152;SDS011;10734;44.792;20.482;2022-12-05T04:43:35;8.40;;;4.05;;
21152;SDS011;10734;44.792;20.482;2022-12-05T04:46:03;6.90;;;3.70;;
21152;SDS011;10734;44.792;20.482;2022-12-05T04:48:31;8.90;;;4.15;;
21152;SDS011;10734;44.792;20.482;2022-12-05T04:51:00;7.82;;;3.30;;
21152;SDS011;10734;44.792;20.482;2022-12-05T04:53:28;9.43;;;4.60;;
21152;SDS011;10734;44.792;20.482;2022-12-05T04:55:56;7.18;;;3.72;;
21152;SDS011;10734;44.792;20.482;2022-12-05T04:58:23;9.85;;;3.35;;
21152;SDS011;10734;44.792;20.482;2022-12-05T05:00:55;6.20;;;3.72;;
21152;SDS011;10734;44.792;20.482;2022-12-05T05:03:24;6.05;;;3.60;;
21152;SDS011;10734;44.792;20.482;2022-12-05T05:05:53;9.50;;;4.13;;
21152;SDS011;10734;44.792;20.482;2022-12-05T05:08:21;7.90;;;3.67;;
21152;SDS011;10734;44.792;20.482;2022-12-05T05:13:38;8.18;;;4.43;;
21152;SDS011;10734;44.792;20.482;2022-12-05T05:16:05;8.52;;;3.83;;
21152;SDS011;10734;44.792;20.482;2022-12-05T05:18:31;6.20;;;4.13;;
21152;SDS011;10734;44.792;20.482;2022-12-05T05:20:58;8.43;;;3.90;;
21152;SDS011;10734;44.792;20.482;2022-12-05T05:23:25;8.98;;;4.35;;
21152;SDS011;10734;44.792;20.482;2022-12-05T05:25:52;7.63;;;3.67;;
21152;SDS011;10734;44.792;20.482;2022-12-05T05:28:19;7.18;;;4.28;;
21152;SDS011;10734;44.792;20.482;2022-12-05T05:30:46;6.55;;;4.35;;
21152;SDS011;10734;44.792;20.482;2022-12-05T05:33:12;5.88;;;3.60;;
21152;SDS011;10734;44.792;20.482;2022-12-05T05:35:39;5.80;;;3.42;;
21152;SDS011;10734;44.792;20.482;2022-12-05T05:38:05;7.07;;;4.07;;
21152;SDS011;10734;44.792;20.482;2022-12-05T05:40:33;14.15;;;3.97;;
21152;SDS011;10734;44.792;20.482;2022-12-05T05:43:00;7.68;;;3.90;;
21152;SDS011;10734;44.792;20.482;2022-12-05T05:45:26;7.90;;;4.50;;
21152;SDS011;10734;44.792;20.482;2022-12-05T05:47:53;8.43;;;4.32;;
21152;SDS011;10734;44.792;20.482;2022-12-05T05:50:19;7.70;;;3.83;;
21152;SDS011;10734;44.792;20.482;2022-12-05T05:52:47;7.38;;;4.22;;
21152;SDS011;10734;44.792;20.482;2022-12-05T05:55:13;11.75;;;5.38;;
21152;SDS011;10734;44.792;20.482;2022-12-05T05:57:40;9.32;;;4.25;;
21152;SDS011;10734;44.792;20.482;2022-12-05T06:00:07;12.45;;;4.32;;
21152;SDS011;10734;44.792;20.482;2022-12-05T06:02:33;10.32;;;4.30;;
21152;SDS011;10734;44.792;20.482;2022-12-05T06:05:00;10.50;;;5.22;;
21152;SDS011;10734;44.792;20.482;2022-12-05T06:07:27;8.77;;;4.68;;
21152;SDS011;10734;44.792;20.482;2022-12-05T06:09:54;10.60;;;5.82;;
21152;SDS011;10734;44.792;20.482;2022-12-05T06:12:21;12.73;;;5.90;;
21152;SDS011;10734;44.792;20.482;2022-12-05T06:14:48;10.95;;;4.63;;
21152;SDS011;10734;44.792;20.482;2022-12-05T06:17:15;9.98;;;5.00;;
21152;SDS011;10734;44.792;20.482;2022-12-05T06:19:41;21.73;;;10.00;;
21152;SDS011;10734;44.792;20.482;2022-12-05T06:22:08;11.63;;;5.22;;
21152;SDS011;10734;44.792;20.482;2022-12-05T06:24:34;11.10;;;6.15;;
21152;SDS011;10734;44.792;20.482;2022-12-05T06:27:01;9.98;;;4.90;;
21152;SDS011;10734;44.792;20.482;2022-12-05T06:29:27;15.38;;;5.70;;
21152;SDS011;10734;44.792;20.482;2022-12-05T06:31:59;13.43;;;5.38;;
21152;SDS011;10734;44.792;20.482;2022-12-05T06:34:25;9.00;;;5.00;;
21152;SDS011;10734;44.792;20.482;2022-12-05T06:36:52;15.65;;;5.70;;
21152;SDS011;10734;44.792;20.482;2022-12-05T06:39:18;11.30;;;5.88;;
21152;SDS011;10734;44.792;20.482;2022-12-05T06:41:45;11.48;;;5.93;;
21152;SDS011;10734;44.792;20.482;2022-12-05T06:44:11;11.10;;;6.50;;
21152;SDS011;10734;44.792;20.482;2022-12-05T06:46:38;13.95;;;5.95;;
21152;SDS011;10734;44.792;20.482;2022-12-05T06:49:04;12.57;;;6.32;;
21152;SDS011;10734;44.792;20.482;2022-12-05T06:51:31;11.00;;;5.63;;
21152;SDS011;10734;44.792;20.482;2022-12-05T06:53:57;11.48;;;6.65;;
21152;SDS011;10734;44.792;20.482;2022-12-05T06:56:24;12.65;;;6.68;;
21152;SDS011;10734;44.792;20.482;2022-12-05T06:58:50;16.63;;;5.80;;
21152;SDS011;10734;44.792;20.482;2022-12-05T07:01:19;11.75;;;5.75;;
21152;SDS011;10734;44.792;20.482;2022-12-05T07:04:05;14.38;;;5.63;;
21152;SDS011;10734;44.792;20.482;2022-12-05T07:06:33;11.10;;;5.93;;
21152;SDS011;10734;44.792;20.482;2022-12-05T07:09:01;12.82;;;5.25;;
21152;SDS011;10734;44.792;20.482;2022-12-05T07:11:27;11.98;;;5.53;;
21152;SDS011;10734;44.792;20.482;2022-12-05T07:13:54;12.35;;;5.93;;
21152;SDS011;10734;44.792;20.482;2022-12-05T07:16:20;14.50;;;5.90;;
21152;SDS011;10734;44.792;20.482;2022-12-05T07:18:47;12.10;;;5.70;;
21152;SDS011;10734;44.792;20.482;2022-12-05T07:21:14;11.32;;;5.38;;
21152;SDS011;10734;44.792;20.482;2022-12-05T07:23:42;15.23;;;6.95;;
21152;SDS011;10734;44.792;20.482;2022-12-05T07:26:10;14.30;;;6.03;;
21152;SDS011;10734;44.792;20.482;2022-12-05T07:28:36;13.15;;;5.68;;
21152;SDS011;10734;44.792;20.482;2022-12-05T07:31:04;14.35;;;6.15;;
21152;SDS011;10734;44.792;20.482;2022-12-05T07:33:31;15.70;;;6.15;;
21152;SDS011;10734;44.792;20.482;2022-12-05T07:36:01;11.13;;;5.80;;
21152;SDS011;10734;44.792;20.482;2022-12-05T07:38:28;13.88;;;6.30;;
21152;SDS011;10734;44.792;20.482;2022-12-05T07:40:55;17.55;;;8.10;;
21152;SDS011;10734;44.792;20.482;2022-12-05T07:43:21;13.23;;;6.82;;
21152;SDS011;10734;44.792;20.482;2022-12-05T07:45:48;11.70;;;6.10;;
21152;SDS011;10734;44.792;20.482;2022-12-05T07:48:15;17.05;;;7.65;;
21152;SDS011;10734;44.792;20.482;2022-12-05T07:50:44;15.73;;;8.02;;
21152;SDS011;10734;44.792;20.482;2022-12-05T07:53:10;14.52;;;7.15;;
21152;SDS011;10734;44.792;20.482;2022-12-05T07:55:37;12.90;;;5.85;;
21152;SDS011;10734;44.792;20.482;2022-12-05T07:58:04;9.55;;;4.97;;
21152;SDS011;10734;44.792;20.482;2022-12-05T08:00:30;13.07;;;5.95;;
21152;SDS011;10734;44.792;20.482;2022-12-05T08:02:57;10.35;;;6.05;;
21152;SDS011;10734;44.792;20.482;2022-12-05T08:05:24;13.07;;;5.68;;
21152;SDS011;10734;44.792;20.482;2022-12-05T08:07:51;10.23;;;5.53;;
21152;SDS011;10734;44.792;20.482;2022-12-05T08:10:17;14.07;;;5.85;;
21152;SDS011;10734;44.792;20.482;2022-12-05T08:12:44;11.15;;;6.32;;
21152;SDS011;10734;44.792;20.482;2022-12-05T08:15:11;12.95;;;6.20;;
21152;SDS011;10734;44.792;20.482;2022-12-05T08:17:37;13.80;;;6.72;;
21152;SDS011;10734;44.792;20.482;2022-12-05T08:20:04;14.45;;;6.82;;
21152;SDS011;10734;44.792;20.482;2022-12-05T08:22:31;13.60;;;5.93;;
21152;SDS011;10734;44.792;20.482;2022-12-05T08:24:58;9.40;;;4.80;;
21152;SDS011;10734;44.792;20.482;2022-12-05T08:27:25;10.38;;;4.80;;
21152;SDS011;10734;44.792;20.482;2022-12-05T08:29:52;9.57;;;4.93;;
21152;SDS011;10734;44.792;20.482;2022-12-05T08:32:19;7.05;;;3.80;;
21152;SDS011;10734;44.792;20.482;2022-12-05T08:34:46;11.55;;;3.75;;
21152;SDS011;10734;44.792;20.482;2022-12-05T08:37:12;7.20;;;3.90;;
21152;SDS011;10734;44.792;20.482;2022-12-05T08:39:39;10.38;;;5.10;;
21152;SDS011;10734;44.792;20.482;2022-12-05T08:42:07;7.63;;;4.35;;
21152;SDS011;10734;44.792;20.482;2022-12-05T08:44:34;7.72;;;4.13;;
21152;SDS011;10734;44.792;20.482;2022-12-05T08:47:00;8.23;;;3.97;;
21152;SDS011;10734;44.792;20.482;2022-12-05T08:49:27;7.28;;;4.20;;
21152;SDS011;10734;44.792;20.482;2022-12-05T08:51:54;7.50;;;3.47;;
21152;SDS011;10734;44.792;20.482;2022-12-05T08:54:21;6.90;;;3.65;;
21152;SDS011;10734;44.792;20.482;2022-12-05T08:56:50;7.65;;;3.90;;
21152;SDS011;10734;44.792;20.482;2022-12-05T08:59:17;7.25;;;4.20;;
21152;SDS011;10734;44.792;20.482;2022-12-05T09:01:47;5.53;;;3.53;;
21152;SDS011;10734;44.792;20.482;2022-12-05T09:04:15;7.60;;;3.88;;
21152;SDS011;10734;44.792;20.482;2022-12-05T09:06:42;11.13;;;4.75;;
21152;SDS011;10734;44.792;20.482;2022-12-05T09:09:09;8.07;;;4.95;;
21152;SDS011;10734;44.792;20.482;2022-12-05T09:11:39;8.25;;;4.75;;
21152;SDS011;10734;44.792;20.482;2022-12-05T09:14:11;11.07;;;5.15;;
21152;SDS011;10734;44.792;20.482;2022-12-05T09:16:39;9.02;;;5.10;;
21152;SDS011;10734;44.792;20.482;2022-12-05T09:19:10;10.15;;;5.07;;
21152;SDS011;10734;44.792;20.482;2022-12-05T09:21:40;6.45;;;4.32;;
21152;SDS011;10734;44.792;20.482;2022-12-05T09:24:08;9.10;;;5.45;;
21152;SDS011;10734;44.792;20.482;2022-12-05T09:26:36;11.45;;;5.70;;
21152;SDS011;10734;44.792;20.482;2022-12-05T09:29:03;11.85;;;5.07;;
21152;SDS011;10734;44.792;20.482;2022-12-05T09:31:30;6.55;;;4.55;;
21152;SDS011;10734;44.792;20.482;2022-12-05T09:33:57;10.90;;;5.97;;
21152;SDS011;10734;44.792;20.482;2022-12-05T09:36:25;11.05;;;4.78;;
21152;SDS011;10734;44.792;20.482;2022-12-05T09:38:53;10.40;;;5.13;;
21152;SDS011;10734;44.792;20.482;2022-12-05T09:47:33;7.35;;;4.93;;
21152;SDS011;10734;44.792;20.482;2022-12-05T09:55:41;8.75;;;3.97;;
21152;SDS011;10734;44.792;20.482;2022-12-05T09:58:14;8.23;;;4.57;;
21152;SDS011;10734;44.792;20.482;2022-12-05T10:00:47;10.25;;;4.20;;
21152;SDS011;10734;44.792;20.482;2022-12-05T10:03:32;7.88;;;4.55;;
21152;SDS011;10734;44.792;20.482;2022-12-05T10:17:56;8.52;;;4.30;;
21152;SDS011;10734;44.792;20.482;2022-12-05T10:21:02;7.38;;;4.72;;
21152;SDS011;10734;44.792;20.482;2022-12-05T10:23:26;7.47;;;4.63;;
21152;SDS011;10734;44.792;20.482;2022-12-05T10:26:15;9.27;;;4.60;;
21152;SDS011;10734;44.792;20.482;2022-12-05T10:28:50;6.53;;;4.85;;
21152;SDS011;10734;44.792;20.482;2022-12-05T10:31:24;8.30;;;5.03;;
21152;SDS011;10734;44.792;20.482;2022-12-05T10:34:11;11.15;;;5.55;;
21152;SDS011;10734;44.792;20.482;2022-12-05T10:36:50;8.00;;;4.90;;
21152;SDS011;10734;44.792;20.482;2022-12-05T10:39:20;7.85;;;4.50;;
21152;SDS011;10734;44.792;20.482;2022-12-05T10:41:48;6.80;;;4.20;;
21152;SDS011;10734;44.792;20.482;2022-12-05T10:44:14;5.90;;;4.30;;
21152;SDS011;10734;44.792;20.482;2022-12-05T10:46:41;7.78;;;5.07;;
21152;SDS011;10734;44.792;20.482;2022-12-05T10:49:11;12.07;;;8.30;;
21152;SDS011;10734;44.792;20.482;2022-12-05T10:51:38;8.23;;;5.65;;
21152;SDS011;10734;44.792;20.482;2022-12-05T10:54:12;11.02;;;5.57;;
21152;SDS011;10734;44.792;20.482;2022-12-05T10:56:44;15.82;;;9.98;;
21152;SDS011;10734;44.792;20.482;2022-12-05T10:59:14;22.40;;;13.27;;
21152;SDS011;10734;44.792;20.482;2022-12-05T11:04:23;10.82;;;6.63;;
21152;SDS011;10734;44.792;20.482;2022-12-05T11:07:02;28.48;;;17.52;;
21152;SDS011;10734;44.792;20.482;2022-12-05T11:09:36;21.80;;;14.63;;
21152;SDS011;10734;44.792;20.482;2022-12-05T11:12:15;10.82;;;6.38;;
21152;SDS011;10734;44.792;20.482;2022-12-05T11:15:21;8.43;;;5.43;;
21152;SDS011;10734;44.792;20.482;2022-12-05T11:17:42;13.02;;;6.60;;
21152;SDS011;10734;44.792;20.482;2022-12-05T11:22:46;11.13;;;5.97;;
21152;SDS011;10734;44.792;20.482;2022-12-05T11:27:53;11.82;;;7.10;;
21152;SDS011;10734;44.792;20.482;2022-12-05T11:30:26;9.75;;;6.00;;
21152;SDS011;10734;44.792;20.482;2022-12-05T11:33:10;9.32;;;6.28;;
21152;SDS011;10734;44.792;20.482;2022-12-05T11:35:36;10.13;;;5.72;;
21152;SDS011;10734;44.792;20.482;2022-12-05T11:38:04;10.90;;;6.40;;
21152;SDS011;10734;44.792;20.482;2022-12-05T11:54:25;11.00;;;7.32;;
21152;SDS011;10734;44.792;20.482;2022-12-05T11:57:29;14.45;;;7.35;;
21152;SDS011;10734;44.792;20.482;2022-12-05T12:00:25;10.80;;;6.60;;
21152;SDS011;10734;44.792;20.482;2022-12-05T12:14:47;9.55;;;7.05;;
21152;SDS011;10734;44.792;20.482;2022-12-05T12:17:28;11.77;;;7.28;;
21152;SDS011;10734;44.792;20.482;2022-12-05T12:25:55;11.18;;;7.57;;
21152;SDS011;10734;44.792;20.482;2022-12-05T12:28:56;11.45;;;7.75;;
21152;SDS011;10734;44.792;20.482;2022-12-05T12:34:28;11.73;;;7.18;;
21152;SDS011;10734;44.792;20.482;2022-12-05T12:37:02;16.50;;;6.90;;
21152;SDS011;10734;44.792;20.482;2022-12-05T12:39:48;11.63;;;6.03;;
21152;SDS011;10734;44.792;20.482;2022-12-05T12:42:34;12.25;;;5.13;;
21152;SDS011;10734;44.792;20.482;2022-12-05T12:50:50;9.32;;;6.40;;
21152;SDS011;10734;44.792;20.482;2022-12-05T13:12:09;11.07;;;7.40;;
21152;SDS011;10734;44.792;20.482;2022-12-05T13:14:39;12.35;;;6.20;;
21152;SDS011;10734;44.792;20.482;2022-12-05T13:17:15;10.10;;;6.88;;
21152;SDS011;10734;44.792;20.482;2022-12-05T13:19:47;12.37;;;8.13;;
21152;SDS011;10734;44.792;20.482;2022-12-05T13:22:19;13.57;;;7.13;;
21152;SDS011;10734;44.792;20.482;2022-12-05T13:24:52;16.15;;;7.15;;
21152;SDS011;10734;44.792;20.482;2022-12-05T13:27:25;11.95;;;6.97;;
21152;SDS011;10734;44.792;20.482;2022-12-05T13:32:30;13.63;;;6.35;;
21152;SDS011;10734;44.792;20.482;2022-12-05T13:35:07;11.50;;;7.65;;
21152;SDS011;10734;44.792;20.482;2022-12-05T13:37:35;12.70;;;7.90;;
21152;SDS011;10734;44.792;20.482;2022-12-05T13:40:31;11.75;;;7.35;;
21152;SDS011;10734;44.792;20.482;2022-12-05T13:43:19;16.38;;;8.80;;
21152;SDS011;10734;44.792;20.482;2022-12-05T13:48:33;14.55;;;7.93;;
21152;SDS011;10734;44.792;20.482;2022-12-05T14:03:54;14.32;;;8.65;;
21152;SDS011;10734;44.792;20.482;2022-12-05T14:06:55;18.67;;;10.30;;
21152;SDS011;10734;44.792;20.482;2022-12-05T14:17:26;19.35;;;10.75;;
21152;SDS011;10734;44.792;20.482;2022-12-05T14:25:37;18.67;;;9.13;;
21152;SDS011;10734;44.792;20.482;2022-12-05T14:34:14;25.95;;;12.20;;
21152;SDS011;10734;44.792;20.482;2022-12-05T14:36:54;23.83;;;10.02;;
21152;SDS011;10734;44.792;20.482;2022-12-05T14:39:31;24.73;;;10.25;;
21152;SDS011;10734;44.792;20.482;2022-12-05T14:42:02;18.75;;;9.27;;
21152;SDS011;10734;44.792;20.482;2022-12-05T14:46:59;21.38;;;10.15;;
21152;SDS011;10734;44.792;20.482;2022-12-05T14:49:35;25.00;;;11.90;;
21152;SDS011;10734;44.792;20.482;2022-12-05T14:52:21;24.15;;;9.93;;
21152;SDS011;10734;44.792;20.482;2022-12-05T14:54:55;22.48;;;11.27;;
21152;SDS011;10734;44.792;20.482;2022-12-05T14:57:26;33.63;;;11.98;;
21152;SDS011;10734;44.792;20.482;2022-12-05T14:59:59;25.58;;;11.68;;
21152;SDS011;10734;44.792;20.482;2022-12-05T15:02:30;25.13;;;10.85;;
21152;SDS011;10734;44.792;20.482;2022-12-05T15:05:02;27.15;;;13.30;;
21152;SDS011;10734;44.792;20.482;2022-12-05T15:07:37;36.75;;;20.10;;
21152;SDS011;10734;44.792;20.482;2022-12-05T15:18:02;149.52;;;68.32;;
21152;SDS011;10734;44.792;20.482;2022-12-05T15:20:45;596.10;;;334.15;;
21152;SDS011;10734;44.792;20.482;2022-12-05T15:26:00;332.33;;;198.10;;
21152;SDS011;10734;44.792;20.482;2022-12-05T15:31:23;120.43;;;86.68;;
21152;SDS011;10734;44.792;20.482;2022-12-05T15:33:51;91.03;;;69.32;;
21152;SDS011;10734;44.792;20.482;2022-12-05T15:36:19;32.85;;;17.38;;
21152;SDS011;10734;44.792;20.482;2022-12-05T15:38:49;29.15;;;12.80;;
21152;SDS011;10734;44.792;20.482;2022-12-05T15:41:16;31.00;;;13.02;;
21152;SDS011;10734;44.792;20.482;2022-12-05T15:43:46;22.40;;;12.05;;
21152;SDS011;10734;44.792;20.482;2022-12-05T15:46:23;22.10;;;11.57;;
21152;SDS011;10734;44.792;20.482;2022-12-05T15:48:52;18.33;;;8.40;;
21152;SDS011;10734;44.792;20.482;2022-12-05T15:51:19;112.72;;;56.22;;
21152;SDS011;10734;44.792;20.482;2022-12-05T15:53:48;266.67;;;152.30;;
21152;SDS011;10734;44.792;20.482;2022-12-05T15:58:50;174.63;;;95.15;;
21152;SDS011;10734;44.792;20.482;2022-12-05T16:01:21;183.98;;;118.75;;
21152;SDS011;10734;44.792;20.482;2022-12-05T16:08:46;39.70;;;21.88;;
21152;SDS011;10734;44.792;20.482;2022-12-05T16:11:13;33.13;;;16.80;;
21152;SDS011;10734;44.792;20.482;2022-12-05T16:13:43;30.98;;;15.88;;
21152;SDS011;10734;44.792;20.482;2022-12-05T16:16:15;27.77;;;14.25;;
21152;SDS011;10734;44.792;20.482;2022-12-05T16:24:07;26.10;;;13.60;;
21152;SDS011;10734;44.792;20.482;2022-12-05T16:26:40;25.08;;;12.07;;
21152;SDS011;10734;44.792;20.482;2022-12-05T16:29:24;22.30;;;12.10;;
21152;SDS011;10734;44.792;20.482;2022-12-05T16:31:52;21.55;;;10.95;;
21152;SDS011;10734;44.792;20.482;2022-12-05T16:34:20;22.50;;;11.43;;
21152;SDS011;10734;44.792;20.482;2022-12-05T16:36:47;24.48;;;11.90;;
21152;SDS011;10734;44.792;20.482;2022-12-05T16:39:15;21.65;;;11.48;;
21152;SDS011;10734;44.792;20.482;2022-12-05T16:41:45;17.90;;;9.90;;
21152;SDS011;10734;44.792;20.482;2022-12-05T16:46:56;27.25;;;11.77;;
21152;SDS011;10734;44.792;20.482;2022-12-05T16:49:34;27.63;;;11.98;;
21152;SDS011;10734;44.792;20.482;2022-12-05T16:54:34;29.50;;;12.88;;
21152;SDS011;10734;44.792;20.482;2022-12-05T16:57:01;30.77;;;12.57;;
21152;SDS011;10734;44.792;20.482;2022-12-05T16:59:32;32.63;;;12.70;;
21152;SDS011;10734;44.792;20.482;2022-12-05T17:01:59;35.30;;;14.65;;
21152;SDS011;10734;44.792;20.482;2022-12-05T17:04:27;32.50;;;13.82;;
21152;SDS011;10734;44.792;20.482;2022-12-05T17:06:54;28.60;;;13.20;;
21152;SDS011;10734;44.792;20.482;2022-12-05T17:09:22;30.38;;;14.32;;
21152;SDS011;10734;44.792;20.482;2022-12-05T17:11:49;29.88;;;13.57;;
21152;SDS011;10734;44.792;20.482;2022-12-05T17:14:18;35.05;;;14.77;;
21152;SDS011;10734;44.792;20.482;2022-12-05T17:16:46;34.50;;;15.25;;
21152;SDS011;10734;44.792;20.482;2022-12-05T17:19:14;28.95;;;14.27;;
21152;SDS011;10734;44.792;20.482;2022-12-05T17:21:40;36.13;;;15.10;;
21152;SDS011;10734;44.792;20.482;2022-12-05T17:24:12;29.38;;;14.07;;
21152;SDS011;10734;44.792;20.482;2022-12-05T17:26:41;30.83;;;14.35;;
21152;SDS011;10734;44.792;20.482;2022-12-05T17:29:07;29.25;;;14.63;;
21152;SDS011;10734;44.792;20.482;2022-12-05T17:31:36;32.72;;;13.52;;
21152;SDS011;10734;44.792;20.482;2022-12-05T17:34:02;29.73;;;14.88;;
21152;SDS011;10734;44.792;20.482;2022-12-05T17:36:30;27.95;;;14.10;;
21152;SDS011;10734;44.792;20.482;2022-12-05T17:38:57;33.53;;;14.95;;
21152;SDS011;10734;44.792;20.482;2022-12-05T17:41:24;34.55;;;15.07;;
21152;SDS011;10734;44.792;20.482;2022-12-05T17:43:51;29.95;;;14.02;;
21152;SDS011;10734;44.792;20.482;2022-12-05T17:46:20;29.45;;;13.48;;
21152;SDS011;10734;44.792;20.482;2022-12-05T17:48:47;28.73;;;14.70;;
21152;SDS011;10734;44.792;20.482;2022-12-05T17:51:15;35.88;;;14.85;;
21152;SDS011;10734;44.792;20.482;2022-12-05T17:53:42;28.70;;;12.82;;
21152;SDS011;10734;44.792;20.482;2022-12-05T17:56:10;23.10;;;11.95;;
21152;SDS011;10734;44.792;20.482;2022-12-05T17:58:37;27.25;;;13.25;;
21152;SDS011;10734;44.792;20.482;2022-12-05T18:01:04;27.58;;;14.25;;
21152;SDS011;10734;44.792;20.482;2022-12-05T18:03:31;29.25;;;13.80;;
21152;SDS011;10734;44.792;20.482;2022-12-05T18:06:02;25.92;;;13.00;;
21152;SDS011;10734;44.792;20.482;2022-12-05T18:08:29;33.35;;;16.05;;
21152;SDS011;10734;44.792;20.482;2022-12-05T18:10:56;26.85;;;14.40;;
21152;SDS011;10734;44.792;20.482;2022-12-05T18:13:23;34.10;;;14.27;;